createdAt,value
2023-04-18T00:00:31.245Z,85.32
2023-04-18T00:03:00.165Z,85.37
2023-04-18T00:05:29.795Z,85.47
2023-04-18T00:07:57.784Z,85.36
2023-04-18T00:10:25.225Z,85.48
2023-04-18T00:12:52.438Z,85.38
2023-04-18T00:15:20.018Z,85.31
2023-04-18T00:17:48.785Z,85.65
2023-04-18T00:20:16.200Z,85.53
2023-04-18T00:22:45.536Z,85.54
2023-04-18T00:25:13.106Z,85.54
2023-04-18T00:27:40.371Z,85.83
2023-04-18T00:30:09.223Z,85.57
2023-04-18T00:32:36.658Z,85.67
2023-04-18T00:35:04.701Z,85.51
2023-04-18T00:37:32.445Z,85.52
2023-04-18T00:39:59.603Z,85.65
2023-04-18T00:42:28.324Z,85.84
2023-04-18T00:44:56.287Z,85.56
2023-04-18T00:47:23.661Z,85.41
2023-04-18T00:49:51.921Z,85.60
2023-04-18T00:52:20.725Z,85.54
2023-04-18T00:54:48.109Z,85.54
2023-04-18T00:57:15.877Z,85.47
2023-04-18T00:59:43.272Z,85.53
2023-04-18T01:05:02.125Z,85.57
2023-04-18T01:07:31.514Z,85.74
2023-04-18T01:09:59.225Z,85.42
2023-04-18T01:12:26.456Z,85.65
2023-04-18T01:14:53.732Z,85.39
2023-04-18T01:17:23.081Z,85.35
2023-04-18T01:19:51.988Z,85.55
2023-04-18T01:22:20.398Z,85.66
2023-04-18T01:24:48.227Z,85.46
2023-04-18T01:27:17.599Z,85.39
2023-04-18T01:29:44.903Z,85.41
2023-04-18T01:32:12.200Z,85.45
2023-04-18T01:34:39.935Z,85.39
2023-04-18T01:37:07.193Z,85.63
2023-04-18T01:39:34.419Z,85.73
2023-04-18T01:42:02.909Z,85.54
2023-04-18T01:44:30.062Z,85.39
2023-04-18T01:46:57.310Z,85.44
2023-04-18T01:49:24.819Z,85.85
2023-04-18T01:51:52.114Z,85.72
2023-04-18T01:54:19.426Z,85.66
2023-04-18T01:56:46.754Z,85.60
2023-04-18T01:59:13.980Z,85.59
2023-04-18T02:01:41.343Z,85.72
2023-04-18T02:04:09.394Z,85.79
2023-04-18T02:06:36.657Z,85.77
2023-04-18T02:09:03.829Z,85.90
2023-04-18T02:11:31.685Z,86.00
2023-04-18T02:13:59.977Z,85.87
2023-04-18T02:16:27.414Z,85.84
2023-04-18T02:18:56.023Z,86.03
2023-04-18T02:21:23.380Z,86.03
2023-04-18T02:23:51.462Z,85.78
2023-04-18T02:26:18.764Z,86.08
2023-04-18T02:28:45.972Z,85.89
2023-04-18T02:31:15.370Z,86.07
2023-04-18T02:33:43.921Z,86.23
2023-04-18T02:36:13.316Z,86.20
2023-04-18T02:38:40.625Z,85.92
2023-04-18T02:41:08.816Z,85.93
2023-04-18T02:43:36.255Z,86.01
2023-04-18T02:46:03.544Z,85.92
2023-04-18T02:48:32.013Z,85.92
2023-04-18T02:51:07.517Z,85.84
2023-04-18T02:53:36.199Z,85.83
2023-04-18T02:56:03.651Z,86.02
2023-04-18T02:58:31.499Z,85.88
2023-04-18T03:00:58.959Z,85.93
2023-04-18T03:03:26.317Z,85.74
2023-04-18T03:05:53.864Z,85.75
2023-04-18T03:08:21.975Z,85.80
2023-04-18T03:10:49.154Z,85.62
2023-04-18T03:13:17.723Z,85.58
2023-04-18T03:15:45.375Z,85.53
2023-04-18T03:18:12.980Z,85.60
2023-04-18T03:20:41.443Z,85.56
2023-04-18T03:23:09.217Z,85.60
2023-04-18T03:25:36.524Z,85.68
2023-04-18T03:28:03.922Z,85.60
2023-04-18T03:30:31.484Z,85.39
2023-04-18T03:32:59.825Z,85.54
2023-04-18T03:35:27.779Z,85.65
2023-04-18T03:37:55.884Z,85.52
2023-04-18T03:40:23.019Z,85.42
2023-04-18T03:42:50.212Z,85.46
2023-04-18T03:45:19.269Z,85.43
2023-04-18T03:47:47.120Z,85.87
2023-04-18T03:50:14.458Z,85.53
2023-04-18T03:52:41.837Z,85.59
2023-04-18T03:55:09.446Z,85.51
2023-04-18T03:57:36.731Z,85.57
2023-04-18T04:00:08.743Z,85.64
2023-04-18T04:02:36.327Z,85.48
2023-04-18T04:05:05.344Z,85.56
2023-04-18T04:07:33.768Z,85.67
2023-04-18T04:10:01.238Z,85.50
2023-04-18T04:12:28.617Z,85.27
2023-04-18T04:14:56.319Z,85.58
2023-04-18T04:17:23.723Z,85.40
2023-04-18T04:19:51.799Z,85.34
2023-04-18T04:22:19.863Z,85.42
2023-04-18T04:24:47.129Z,85.34
2023-04-18T04:27:15.506Z,85.25
2023-04-18T04:29:44.681Z,85.40
2023-04-18T04:32:13.380Z,85.19
2023-04-18T04:34:41.833Z,85.21
2023-04-18T04:37:09.992Z,85.18
2023-04-18T04:39:37.281Z,85.18
2023-04-18T04:42:05.070Z,85.05
2023-04-18T04:44:32.621Z,85.13
2023-04-18T04:47:00.136Z,85.22
2023-04-18T04:49:27.276Z,85.10
2023-04-18T04:51:54.800Z,84.88
2023-04-18T04:54:22.067Z,85.05
2023-04-18T04:56:49.461Z,84.93
2023-04-18T04:59:17.019Z,85.01
2023-04-18T05:01:55.518Z,84.90
2023-04-18T05:04:23.396Z,84.79
2023-04-18T05:06:51.140Z,84.65
2023-04-18T05:09:18.415Z,84.91
2023-04-18T05:11:47.482Z,84.66
2023-04-18T05:14:14.890Z,84.47
2023-04-18T05:16:42.580Z,84.59
2023-04-18T05:19:10.815Z,84.20
2023-04-18T05:21:38.207Z,84.44
2023-04-18T05:24:05.395Z,84.56
2023-04-18T05:26:33.205Z,84.27
2023-04-18T05:29:00.425Z,83.94
2023-04-18T05:31:28.543Z,83.93
2023-04-18T05:33:56.364Z,83.89
2023-04-18T05:36:24.781Z,83.58
2023-04-18T05:38:52.893Z,83.70
2023-04-18T05:41:20.477Z,83.79
2023-04-18T05:44:01.893Z,83.55
2023-04-18T05:46:32.686Z,83.42
2023-04-18T05:49:00.149Z,83.24
2023-04-18T05:51:29.177Z,83.41
2023-04-18T05:53:56.805Z,83.37
2023-04-18T05:56:24.378Z,83.21
2023-04-18T05:58:51.981Z,82.86
2023-04-18T06:01:19.234Z,82.90
2023-04-18T06:03:47.127Z,83.12
2023-04-18T06:06:14.815Z,83.07
2023-04-18T06:08:42.633Z,83.07
2023-04-18T06:11:10.074Z,83.06
2023-04-18T06:13:37.836Z,82.87
2023-04-18T06:16:08.177Z,83.05
2023-04-18T06:18:35.665Z,83.11
2023-04-18T06:21:02.807Z,82.91
2023-04-18T06:23:30.368Z,82.62
2023-04-18T06:25:58.104Z,82.74
2023-04-18T06:28:25.981Z,82.86
2023-04-18T06:30:53.880Z,82.61
2023-04-18T06:33:21.810Z,82.81
2023-04-18T06:35:49.517Z,82.19
2023-04-18T06:38:17.178Z,82.58
2023-04-18T06:40:44.524Z,82.36
2023-04-18T06:43:12.060Z,82.42
2023-04-18T06:45:39.421Z,82.24
2023-04-18T06:48:08.174Z,82.24
2023-04-18T06:50:35.509Z,82.32
2023-04-18T06:53:03.047Z,81.79
2023-04-18T06:55:30.373Z,82.08
2023-04-18T06:57:57.907Z,81.84
2023-04-18T07:00:25.212Z,81.99
2023-04-18T07:02:52.641Z,82.12
2023-04-18T07:05:20.486Z,81.77
2023-04-18T07:07:48.194Z,81.82
2023-04-18T07:10:15.476Z,81.30
2023-04-18T07:12:43.204Z,81.65
2023-04-18T07:15:11.747Z,81.59
2023-04-18T07:17:39.026Z,81.63
2023-04-18T07:20:07.280Z,81.02
2023-04-18T07:22:35.067Z,80.92
2023-04-18T07:25:02.432Z,80.75
2023-04-18T07:27:30.149Z,81.07
2023-04-18T07:29:58.562Z,81.16
2023-04-18T07:32:25.769Z,80.74
2023-04-18T07:34:53.262Z,80.43
2023-04-18T07:37:22.146Z,79.69
2023-04-18T07:39:49.678Z,80.24
2023-04-18T07:42:16.773Z,79.93
2023-04-18T07:44:45.261Z,79.62
2023-04-18T07:47:12.960Z,79.77
2023-04-18T07:49:40.256Z,79.78
2023-04-18T07:52:08.351Z,79.18
2023-04-18T07:54:35.709Z,78.38
2023-04-18T07:57:03.162Z,78.33
2023-04-18T07:59:32.855Z,77.12
2023-04-18T08:02:00.356Z,77.21
2023-04-18T08:04:29.914Z,77.22
2023-04-18T08:06:58.414Z,76.29
2023-04-18T08:09:25.680Z,76.78
2023-04-18T08:11:56.037Z,76.18
2023-04-18T08:14:23.719Z,76.78
2023-04-18T08:16:51.311Z,76.60
2023-04-18T08:19:18.609Z,74.15
2023-04-18T08:21:46.073Z,74.09
2023-04-18T08:24:13.696Z,73.28
2023-04-18T08:26:40.934Z,73.97
2023-04-18T08:29:09.060Z,73.32
2023-04-18T08:31:36.818Z,73.16
2023-04-18T08:34:05.212Z,73.56
2023-04-18T08:36:32.663Z,73.78
2023-04-18T08:38:59.790Z,73.17
2023-04-18T08:41:29.276Z,72.94
2023-04-18T08:43:57.218Z,73.06
2023-04-18T08:46:24.770Z,72.83
2023-04-18T08:48:53.060Z,72.16
2023-04-18T08:51:20.638Z,72.84
2023-04-18T08:53:49.148Z,71.74
2023-04-18T08:56:17.145Z,71.10
2023-04-18T08:58:45.818Z,71.58
2023-04-18T09:01:14.225Z,70.46
2023-04-18T09:03:43.560Z,69.08
2023-04-18T09:06:16.453Z,70.28
2023-04-18T09:08:45.280Z,69.76
2023-04-18T09:11:29.644Z,69.32
2023-04-18T09:13:59.311Z,69.06
2023-04-18T09:16:28.198Z,69.96
2023-04-18T09:19:13.434Z,69.64
2023-04-18T09:21:44.857Z,68.50
2023-04-18T09:24:29.716Z,67.32
2023-04-18T09:27:00.237Z,68.20
2023-04-18T09:29:50.772Z,67.65
2023-04-18T09:32:29.696Z,67.36
2023-04-18T09:35:04.196Z,67.02
2023-04-18T09:37:32.064Z,66.49
2023-04-18T09:39:59.522Z,63.85
2023-04-18T09:42:28.760Z,66.16
2023-04-18T09:45:09.480Z,64.58
2023-04-18T09:47:38.205Z,63.75
2023-04-18T09:50:10.454Z,63.89
2023-04-18T09:52:40.102Z,62.29
2023-04-18T09:55:10.401Z,62.30
2023-04-18T09:57:42.219Z,59.59
2023-04-18T10:00:24.509Z,61.28
2023-04-18T10:02:56.159Z,59.17
2023-04-18T10:05:26.689Z,57.66
2023-04-18T10:07:55.146Z,58.27
2023-04-18T10:10:23.789Z,57.71
2023-04-18T10:12:54.721Z,57.43
2023-04-18T10:15:24.736Z,52.74
2023-04-18T10:18:04.352Z,54.57
2023-04-18T10:20:35.862Z,55.60
2023-04-18T10:23:32.630Z,56.31
2023-04-18T10:26:00.377Z,55.94
2023-04-18T10:28:28.723Z,56.17
2023-04-18T10:31:05.147Z,55.94
2023-04-18T10:33:34.372Z,56.12
2023-04-18T10:36:10.034Z,54.91
2023-04-18T10:38:56.549Z,55.32
2023-04-18T10:41:35.146Z,53.24
2023-04-18T10:44:15.833Z,51.65
2023-04-18T10:47:09.581Z,51.37
2023-04-18T10:49:37.340Z,52.63
2023-04-18T10:52:07.772Z,51.64
2023-04-18T10:55:04.633Z,51.95
2023-04-18T10:57:46.171Z,51.66
2023-04-18T11:00:17.522Z,51.72
2023-04-18T11:03:00.639Z,52.21
2023-04-18T11:05:30.069Z,51.38
2023-04-18T11:07:57.300Z,51.72
2023-04-18T11:10:27.211Z,50.63
2023-04-18T11:12:56.310Z,50.55
2023-04-18T11:15:25.386Z,50.64
2023-04-18T11:18:05.476Z,51.03
2023-04-18T11:20:46.472Z,51.13
2023-04-18T11:23:21.868Z,49.79
2023-04-18T11:25:52.752Z,47.45
2023-04-18T11:28:22.117Z,47.09
2023-04-18T11:30:49.627Z,47.77
2023-04-18T11:33:17.197Z,46.35
2023-04-18T11:35:46.414Z,45.33
2023-04-18T11:38:16.873Z,44.03
2023-04-18T11:40:51.572Z,44.98
2023-04-18T11:43:26.402Z,44.88
2023-04-18T11:45:59.095Z,46.38
2023-04-18T11:48:41.554Z,46.06
2023-04-18T11:51:29.699Z,45.87
2023-04-18T11:53:57.267Z,45.83
2023-04-18T11:56:24.826Z,46.05
2023-04-18T11:58:52.295Z,45.66
2023-04-18T12:01:21.850Z,46.12
2023-04-18T12:04:07.883Z,45.97
2023-04-18T12:06:52.621Z,46.49
2023-04-18T12:09:25.491Z,45.77
2023-04-18T12:12:01.492Z,45.39
2023-04-18T12:14:29.252Z,45.45
2023-04-18T12:16:56.875Z,45.43
2023-04-18T12:19:28.906Z,45.30
2023-04-18T12:22:02.117Z,45.20
2023-04-18T12:24:31.237Z,44.56
2023-04-18T12:27:00.654Z,44.41
2023-04-18T12:29:29.734Z,44.83
2023-04-18T12:31:57.340Z,43.76
2023-04-18T12:34:25.790Z,44.58
2023-04-18T12:36:54.366Z,44.79
2023-04-18T12:39:21.751Z,44.83
2023-04-18T12:41:50.021Z,44.47
2023-04-18T12:44:17.718Z,44.88
2023-04-18T12:46:45.425Z,45.82
2023-04-18T12:49:12.894Z,46.29
2023-04-18T12:51:41.032Z,46.19
2023-04-18T12:54:08.669Z,46.84
2023-04-18T12:56:36.757Z,46.98
2023-04-18T12:59:04.063Z,46.38
2023-04-18T13:01:31.409Z,46.44
2023-04-18T13:04:10.764Z,47.27
2023-04-18T13:06:40.546Z,48.03
2023-04-18T13:09:08.542Z,47.69
2023-04-18T13:11:36.144Z,47.70
2023-04-18T13:14:03.877Z,47.81
2023-04-18T13:16:31.577Z,46.72
2023-04-18T13:18:58.894Z,45.10
2023-04-18T13:21:26.635Z,44.16
2023-04-18T13:23:54.247Z,43.20
2023-04-18T13:26:21.542Z,43.52
2023-04-18T13:28:48.713Z,43.70
2023-04-18T13:31:17.197Z,43.82
2023-04-18T13:33:44.829Z,43.43
2023-04-18T13:36:12.525Z,43.04
2023-04-18T13:38:40.883Z,42.26
2023-04-18T13:41:12.830Z,42.62
2023-04-18T13:43:40.496Z,43.21
2023-04-18T13:46:07.909Z,44.21
2023-04-18T13:48:35.275Z,43.71
2023-04-18T13:51:03.206Z,45.28
2023-04-18T13:53:31.305Z,47.14
2023-04-18T13:55:59.494Z,48.09
2023-04-18T13:58:26.798Z,48.91
2023-04-18T14:00:54.710Z,49.49
2023-04-18T14:03:22.071Z,49.91
2023-04-18T14:05:49.973Z,50.37
2023-04-18T14:08:17.705Z,50.81
2023-04-18T14:10:44.883Z,51.12
2023-04-18T14:13:12.437Z,51.41
2023-04-18T14:15:39.955Z,51.60
2023-04-18T14:18:07.267Z,52.11
2023-04-18T14:20:35.745Z,52.14
2023-04-18T14:23:03.526Z,52.01
2023-04-18T14:25:31.065Z,52.30
2023-04-18T14:28:10.470Z,52.25
2023-04-18T14:30:39.185Z,52.41
2023-04-18T14:33:09.129Z,52.27
2023-04-18T14:35:37.123Z,52.45
2023-04-18T14:38:04.316Z,52.55
2023-04-18T14:40:32.822Z,52.89
2023-04-18T14:43:01.086Z,52.31
2023-04-18T14:45:28.565Z,52.99
2023-04-18T14:47:56.344Z,52.78
2023-04-18T14:50:24.213Z,52.64
2023-04-18T14:52:51.784Z,52.22
2023-04-18T14:55:22.412Z,52.82
2023-04-18T14:57:50.221Z,52.23
2023-04-18T15:00:17.859Z,52.35
2023-04-18T15:02:45.514Z,52.71
2023-04-18T15:05:13.359Z,52.93
2023-04-18T15:07:41.467Z,52.96
2023-04-18T15:10:09.420Z,53.15
2023-04-18T15:12:37.007Z,53.36
2023-04-18T15:15:04.543Z,53.50
2023-04-18T15:17:31.830Z,53.54
2023-04-18T15:20:01.075Z,53.82
2023-04-18T15:22:28.303Z,53.93
2023-04-18T15:24:55.508Z,54.02
2023-04-18T15:27:24.199Z,54.21
2023-04-18T15:29:51.708Z,54.32
2023-04-18T15:32:19.272Z,54.47
2023-04-18T15:34:46.914Z,54.56
2023-04-18T15:37:14.473Z,54.71
2023-04-18T15:39:41.722Z,54.93
2023-04-18T15:42:09.030Z,55.10
2023-04-18T15:44:36.241Z,55.48
2023-04-18T15:47:03.529Z,55.70
2023-04-18T15:49:31.388Z,55.89
2023-04-18T15:51:58.647Z,56.09
2023-04-18T15:54:25.922Z,56.50
2023-04-18T15:56:53.230Z,56.67
2023-04-18T15:59:20.866Z,57.03
2023-04-18T16:01:48.083Z,57.15
2023-04-18T16:04:16.290Z,57.32
2023-04-18T16:06:43.662Z,57.63
2023-04-18T16:09:11.043Z,57.69
2023-04-18T16:11:38.805Z,57.78
2023-04-18T16:14:06.169Z,57.85
2023-04-18T16:16:34.849Z,58.04
2023-04-18T16:19:02.615Z,58.07
2023-04-18T16:21:30.312Z,58.21
2023-04-18T16:23:57.639Z,58.26
2023-04-18T16:26:25.789Z,58.71
2023-04-18T16:28:53.444Z,58.72
2023-04-18T16:31:21.074Z,59.34
2023-04-18T16:33:48.815Z,59.25
2023-04-18T16:36:16.096Z,59.42
2023-04-18T16:38:43.417Z,59.77
2023-04-18T16:41:11.312Z,59.88
2023-04-18T16:43:39.085Z,59.84
2023-04-18T16:46:06.549Z,60.33
2023-04-18T16:48:34.257Z,60.43
2023-04-18T16:51:01.618Z,60.67
2023-04-18T16:53:29.069Z,60.55
2023-04-18T16:55:56.747Z,60.71
2023-04-18T16:58:24.306Z,60.97
2023-04-18T17:00:53.061Z,61.05
2023-04-18T17:03:21.178Z,61.12
2023-04-18T17:05:48.474Z,61.25
2023-04-18T17:08:16.634Z,61.19
2023-04-18T17:10:44.075Z,61.33
2023-04-18T17:13:11.757Z,61.52
2023-04-18T17:15:39.502Z,61.66
2023-04-18T17:18:07.393Z,61.78
2023-04-18T17:20:36.567Z,62.04
2023-04-18T17:23:04.508Z,62.12
2023-04-18T17:25:32.540Z,62.53
2023-04-18T17:28:03.144Z,62.74
2023-04-18T17:30:30.944Z,62.90
2023-04-18T17:32:59.103Z,63.26
2023-04-18T17:35:26.824Z,63.38
2023-04-18T17:37:54.869Z,63.36
2023-04-18T17:40:23.221Z,63.61
2023-04-18T17:42:51.092Z,63.65
2023-04-18T17:45:23.096Z,63.74
2023-04-18T17:47:51.528Z,63.94
2023-04-18T17:50:21.553Z,64.15
2023-04-18T17:52:51.127Z,64.39
2023-04-18T17:55:18.961Z,64.19
2023-04-18T17:57:47.549Z,64.34
2023-04-18T18:00:16.710Z,64.37
2023-04-18T18:02:46.008Z,64.46
2023-04-18T18:05:14.593Z,64.51
2023-04-18T18:07:44.402Z,64.62
2023-04-18T18:10:13.391Z,64.70
2023-04-18T18:12:41.911Z,64.87
2023-04-18T18:15:10.307Z,65.10
2023-04-18T18:17:39.036Z,65.23
2023-04-18T18:20:11.229Z,65.11
2023-04-18T18:22:39.017Z,65.12
2023-04-18T18:25:08.710Z,65.28
2023-04-18T18:27:37.487Z,65.41
2023-04-18T18:30:06.418Z,65.22
2023-04-18T18:32:35.949Z,65.19
2023-04-18T18:35:05.117Z,65.52
2023-04-18T18:37:33.578Z,65.62
2023-04-18T18:40:07.109Z,65.60
2023-04-18T18:42:35.681Z,65.82
2023-04-18T18:45:04.410Z,65.98
2023-04-18T18:47:37.429Z,65.94
2023-04-18T18:50:08.683Z,66.05
2023-04-18T18:52:37.200Z,66.05
2023-04-18T18:55:06.144Z,66.18
2023-04-18T18:57:35.550Z,66.12
2023-04-18T19:00:04.048Z,66.48
2023-04-18T19:02:33.441Z,66.43
2023-04-18T19:05:05.022Z,66.42
2023-04-18T19:07:34.022Z,66.49
2023-04-18T19:10:02.923Z,66.37
2023-04-18T19:12:30.784Z,66.62
2023-04-18T19:15:00.646Z,66.90
2023-04-18T19:17:30.254Z,66.98
2023-04-18T19:20:00.252Z,66.96
2023-04-18T19:22:35.205Z,66.89
2023-04-18T19:25:05.946Z,66.81
2023-04-18T19:27:34.645Z,67.17
2023-04-18T19:30:03.712Z,66.97
2023-04-18T19:32:33.137Z,67.24
2023-04-18T19:35:02.539Z,67.63
2023-04-18T19:37:30.925Z,67.69
2023-04-18T19:39:59.061Z,67.71
2023-04-18T19:42:28.481Z,68.04
2023-04-18T19:44:57.668Z,68.27
2023-04-18T19:47:26.115Z,68.32
2023-04-18T19:49:54.782Z,68.57
2023-04-18T19:52:22.585Z,68.75
2023-04-18T19:54:50.479Z,68.71
2023-04-18T19:57:18.770Z,69.03
2023-04-18T19:59:48.097Z,68.99
2023-04-18T20:02:16.426Z,69.23
2023-04-18T20:04:45.431Z,69.30
2023-04-18T20:07:13.347Z,69.48
2023-04-18T20:09:42.393Z,69.78
2023-04-18T20:12:12.200Z,69.84
2023-04-18T20:14:40.488Z,69.93
2023-04-18T20:17:07.844Z,69.91
2023-04-18T20:19:36.601Z,70.01
2023-04-18T20:22:04.790Z,69.84
2023-04-18T20:24:38.839Z,70.19
2023-04-18T20:27:06.823Z,69.98
2023-04-18T20:29:38.758Z,70.18
2023-04-18T20:32:07.624Z,70.41
2023-04-18T20:34:36.994Z,70.66
2023-04-18T20:37:08.456Z,70.77
2023-04-18T20:39:38.679Z,70.70
2023-04-18T20:42:06.316Z,71.26
2023-04-18T20:44:35.747Z,71.08
2023-04-18T20:47:03.617Z,71.30
2023-04-18T20:49:31.908Z,71.29
2023-04-18T20:51:59.646Z,71.39
2023-04-18T20:54:27.277Z,71.30
2023-04-18T20:56:54.782Z,71.35
2023-04-18T20:59:22.371Z,71.79
2023-04-18T21:01:50.135Z,71.71
2023-04-18T21:04:17.851Z,71.63
2023-04-18T21:06:45.491Z,71.73
2023-04-18T21:09:13.288Z,72.15
2023-04-18T21:11:40.874Z,72.34
2023-04-18T21:14:08.263Z,72.28
2023-04-18T21:16:37.695Z,72.29
2023-04-18T21:19:06.509Z,72.23
2023-04-18T21:21:34.788Z,72.18
2023-04-18T21:24:03.118Z,72.34
2023-04-18T21:26:31.171Z,72.33
2023-04-18T21:29:00.655Z,72.53
2023-04-18T21:31:30.683Z,72.97
2023-04-18T21:34:00.925Z,72.79
2023-04-18T21:36:30.006Z,73.16
2023-04-18T21:38:59.543Z,73.14
2023-04-18T21:41:27.219Z,73.11
2023-04-18T21:43:54.527Z,73.28
2023-04-18T21:46:21.937Z,73.23
2023-04-18T21:48:49.807Z,73.27
2023-04-18T21:51:17.660Z,73.56
2023-04-18T21:53:45.228Z,73.46
2023-04-18T21:56:13.020Z,73.51
2023-04-18T21:58:40.271Z,73.51
2023-04-18T22:01:08.570Z,73.55
2023-04-18T22:03:37.418Z,73.49
2023-04-18T22:06:05.085Z,73.69
2023-04-18T22:08:32.830Z,73.85
2023-04-18T22:11:00.817Z,73.82
2023-04-18T22:13:33.414Z,73.69
2023-04-18T22:16:05.189Z,73.92
2023-04-18T22:18:37.983Z,74.04
2023-04-18T22:21:06.438Z,73.81
2023-04-18T22:23:33.685Z,74.35
2023-04-18T22:26:01.200Z,74.29
2023-04-18T22:28:28.983Z,74.45
2023-04-18T22:30:56.509Z,74.20
2023-04-18T22:33:24.168Z,74.48
2023-04-18T22:35:52.178Z,74.43
2023-04-18T22:38:19.429Z,74.37
2023-04-18T22:40:46.690Z,74.67
2023-04-18T22:43:14.040Z,74.74
2023-04-18T22:45:41.494Z,74.70
2023-04-18T22:48:11.914Z,74.69
2023-04-18T22:50:43.250Z,74.57
2023-04-18T22:53:11.418Z,74.70
2023-04-18T22:55:40.760Z,74.63
2023-04-18T22:58:09.113Z,74.97
2023-04-18T23:00:36.689Z,75.21
2023-04-18T23:03:04.438Z,75.16
2023-04-18T23:05:32.679Z,74.81
2023-04-18T23:08:00.612Z,75.06
2023-04-18T23:10:28.281Z,75.26
2023-04-18T23:12:55.620Z,74.97
2023-04-18T23:15:23.264Z,75.30
2023-04-18T23:17:53.454Z,75.24
2023-04-18T23:20:22.135Z,75.26
2023-04-18T23:22:52.013Z,75.41
2023-04-18T23:25:20.128Z,75.41
2023-04-18T23:27:48.448Z,75.87
2023-04-18T23:30:15.845Z,75.76
2023-04-18T23:32:43.194Z,75.68
2023-04-18T23:35:11.653Z,75.77
2023-04-18T23:37:39.017Z,75.96
2023-04-18T23:40:07.115Z,75.84
2023-04-18T23:42:37.810Z,75.99
2023-04-18T23:45:06.304Z,75.84
2023-04-18T23:47:33.437Z,75.79
2023-04-18T23:50:00.785Z,76.19
2023-04-18T23:52:28.097Z,76.46
2023-04-18T23:54:55.986Z,76.29
2023-04-18T23:57:23.352Z,76.17
2023-04-18T23:59:50.578Z,76.23
